Terminal Aerodrome Forecast
Issued by NWS Albany, NY

Home | Current Version | Previous Version | Text Only | Print | Product List | Glossary On
Versions: 1 2 3 4 5 6 7 8 9 10 11 12 13 14 15 16 17 18 19 20 21 22
000
FTUS41 KALY 281142
TAFPOU
TAF
KPOU 281142Z 2812/2912 VRB03KT P6SM SCT120 BKN250
     FM281600 23006KT P6SM SCT070
     FM282300 VRB03KT P6SM SCT250
     FM290800 00000KT 4SM BR FEW004=

USA.gov is the U.S. government's official web portal to all federal, state and local government web resources and services.